Niagara Falls International Airport
KIAG : now visible

Airfield :











YOU CAN JOIN US ON...

 
LOGIN :

Register | Disclaimer

   EN    FR    IT 

 









Legend :    VFR   Marginal VFR   IFR   Intensive IFR   Very Intensive IFR
Visi :
Ceiling :
>= 8 km
>= 3000ft
5 to 8 km
1000 to 3000 ft
1500m to 5 km
500 to 1000 ft
800 to 1500m
200 to 500 ft
< 800m
< 200 ft
Symbols :   Thunderstorms  Fog  Heavy snow  Heavy precipitations  Wind > 20 kt







- Airport Elevation : 589 ft
- IATA code : IAG


KIAG - Niagara Falls International

CURRENT METAR :
  • 181903Z 33009KT 10SM SCT025 BKN031 28/21 A2993 RMK AO2 T02830211

EXPIRED METARs :
  • 181853Z 34010KT 10SM BKN025 BKN031 28/21 A2993 RMK AO2 SLP129 T02780211
  • 181753Z 28009KT 230V310 10SM BKN036 BKN045 BKN055 29/20 A2992 RMK AO2 SLP124 T02890200 10294 20222 55009
  • 181653Z 00000KT 10SM BKN034 27/19 A2991 RMK AO2 SLP125 T02670194

TAF KIAG
Valid from the 18 at 18:00 until the 19 at 18:00 UTC


181731Z 1818/1918 VRB04KT P6SM BKN035
FM181900 VRB04KT P6SM SCT090
FM190600 20010KT P6SM SCT250
FM191200 23013KT P6SM BKN045
FM191400 23012G21KT P6SM BKN070
KZOB FIR / North America



MET'MAP, your aeronautical weather chart ! - Copyright ORBIFLY December 2007 - Disclaimer

ORBIFLY MET'MAP TEAM :

Programming & Development : Alexandra Zaïnal
Concept & Development : Baudouin d'Aumeries
Co-Development & Prog : Marc-Olivier Méhu
Technical & hardware support : Manuel Goepfert

Contact : metmap@orbifly.com




SOURCES & CREDITS :

   NOAA       Earth
Advisory